createdAt,value
2017-12-30T00:01:19.356Z,95790.32
2017-12-30T00:03:45.333Z,95788.73
2017-12-30T00:06:11.383Z,95788.91
2017-12-30T00:08:37.376Z,95791.53
2017-12-30T00:11:03.468Z,95796.70
2017-12-30T00:13:29.516Z,95800.80
2017-12-30T00:15:55.520Z,95797.69
2017-12-30T00:18:21.524Z,95800.39
2017-12-30T00:20:47.581Z,95800.20
2017-12-30T00:23:13.644Z,95811.16
2017-12-30T00:25:39.700Z,95814.97
2017-12-30T00:28:05.733Z,95815.66
2017-12-30T00:30:31.836Z,95819.42
2017-12-30T00:32:57.900Z,95823.93
2017-12-30T00:35:23.957Z,95828.56
2017-12-30T00:37:49.996Z,95833.00
2017-12-30T00:40:16.027Z,95836.88
2017-12-30T00:42:42.190Z,95839.85
2017-12-30T00:45:08.392Z,95835.94
2017-12-30T00:47:34.361Z,95836.11
2017-12-30T00:50:00.405Z,95847.87
2017-12-30T00:52:26.572Z,95847.76
2017-12-30T00:54:52.552Z,95852.06
2017-12-30T00:57:18.631Z,95849.70
2017-12-30T00:59:44.687Z,95852.43
2017-12-30T01:02:10.877Z,95851.27
2017-12-30T01:04:36.885Z,95857.22
2017-12-30T01:07:02.916Z,95863.08
2017-12-30T01:09:29.012Z,95866.73
2017-12-30T01:11:55.051Z,95871.02
2017-12-30T01:14:21.100Z,95878.67
2017-12-30T01:16:47.204Z,95881.41
2017-12-30T01:19:13.216Z,95880.66
2017-12-30T01:21:39.296Z,95880.77
2017-12-30T01:24:05.353Z,95888.92
2017-12-30T01:26:31.444Z,95888.27
2017-12-30T01:28:57.460Z,95890.59
2017-12-30T01:31:23.457Z,95888.83
2017-12-30T01:33:49.491Z,95890.59
2017-12-30T01:36:15.532Z,95893.50
2017-12-30T01:38:41.593Z,95895.19
2017-12-30T01:41:07.624Z,95905.89
2017-12-30T01:43:33.661Z,95901.69
2017-12-30T01:45:59.696Z,95913.66
2017-12-30T01:48:25.716Z,95911.30
2017-12-30T01:50:51.688Z,95909.61
2017-12-30T01:53:17.651Z,95909.80
2017-12-30T01:55:44.144Z,95916.53
2017-12-30T01:58:10.177Z,95909.23
2017-12-30T02:00:36.280Z,95912.45
2017-12-30T02:03:02.297Z,95920.14
2017-12-30T02:05:28.329Z,95920.77
2017-12-30T02:07:54.300Z,95921.55
2017-12-30T02:10:20.312Z,95922.95
2017-12-30T02:12:46.337Z,95924.11
2017-12-30T02:15:12.398Z,95927.23
2017-12-30T02:17:38.368Z,95922.28
2017-12-30T02:20:04.345Z,95928.66
2017-12-30T02:22:30.464Z,95928.39
2017-12-30T02:24:56.489Z,95926.55
2017-12-30T02:27:22.593Z,95923.97
2017-12-30T02:29:48.615Z,95928.72
2017-12-30T02:32:14.642Z,95928.19
2017-12-30T02:34:40.652Z,95936.03
2017-12-30T02:37:06.695Z,95937.05
2017-12-30T02:39:32.664Z,95938.74
2017-12-30T02:41:58.708Z,95949.50
2017-12-30T02:44:24.793Z,95956.76
2017-12-30T02:46:50.780Z,95952.91
2017-12-30T02:49:16.859Z,95953.98
2017-12-30T02:51:42.928Z,95955.30
2017-12-30T02:54:08.964Z,95957.48
2017-12-30T02:56:35.028Z,95956.22
2017-12-30T02:59:01.029Z,95959.17
2017-12-30T03:01:27.084Z,95961.64
2017-12-30T03:03:53.104Z,95959.77
2017-12-30T03:06:19.161Z,95953.11
2017-12-30T03:08:45.176Z,95952.56
2017-12-30T03:11:11.259Z,95962.55
2017-12-30T03:13:37.312Z,95961.43
2017-12-30T03:16:03.336Z,95964.11
2017-12-30T03:18:29.435Z,95967.10
2017-12-30T03:20:55.609Z,95969.45
2017-12-30T03:23:21.723Z,95966.23
2017-12-30T03:25:47.780Z,95967.70
2017-12-30T03:28:13.804Z,95974.48
2017-12-30T03:30:39.833Z,95976.69
2017-12-30T03:33:05.837Z,95979.02
2017-12-30T03:35:31.883Z,95976.83
2017-12-30T03:37:57.899Z,95978.90
2017-12-30T03:40:23.965Z,95981.11
2017-12-30T03:42:50.514Z,95977.87
2017-12-30T03:45:16.611Z,95971.24
2017-12-30T03:47:42.701Z,95975.66
2017-12-30T03:50:08.718Z,95981.19
2017-12-30T03:52:34.737Z,95976.52
2017-12-30T03:55:00.773Z,95970.02
2017-12-30T03:57:26.812Z,95970.41
2017-12-30T03:59:52.816Z,95968.19
2017-12-30T04:02:18.975Z,95969.88
2017-12-30T04:04:45.055Z,95964.41
2017-12-30T04:07:11.072Z,95970.41
2017-12-30T04:09:37.139Z,95967.69
2017-12-30T04:12:03.292Z,95967.94
2017-12-30T04:14:29.297Z,95971.84
2017-12-30T04:16:55.408Z,95975.09
2017-12-30T04:19:21.422Z,95972.34
2017-12-30T04:21:47.474Z,95974.28
2017-12-30T04:24:13.480Z,95970.36
2017-12-30T04:26:39.704Z,95974.88
2017-12-30T04:29:05.763Z,95971.52
2017-12-30T04:31:31.815Z,95971.28
2017-12-30T04:33:57.885Z,95965.98
2017-12-30T04:36:23.904Z,95966.72
2017-12-30T04:38:49.952Z,95966.11
2017-12-30T04:41:16.004Z,95963.77
2017-12-30T04:43:41.998Z,95964.27
2017-12-30T04:46:07.973Z,95969.73
2017-12-30T04:48:33.983Z,95964.81
2017-12-30T04:51:00.040Z,95965.59
2017-12-30T04:53:26.069Z,95973.00
2017-12-30T04:55:52.145Z,95972.36
2017-12-30T04:58:18.152Z,95970.73
2017-12-30T05:00:44.288Z,95974.70
2017-12-30T05:03:10.336Z,95979.25
2017-12-30T05:05:36.364Z,95985.09
2017-12-30T05:08:02.376Z,95980.77
2017-12-30T05:10:28.423Z,95972.47
2017-12-30T05:12:54.467Z,95978.13
2017-12-30T05:15:20.539Z,95988.14
2017-12-30T05:17:46.578Z,95985.38
2017-12-30T05:20:12.617Z,95995.00
2017-12-30T05:22:38.709Z,95995.34
2017-12-30T05:25:04.719Z,95995.91
2017-12-30T05:27:30.757Z,95999.08
2017-12-30T05:29:56.785Z,95999.33
2017-12-30T05:32:22.812Z,95999.67
2017-12-30T05:34:48.824Z,95994.55
2017-12-30T05:37:14.918Z,95997.98
2017-12-30T05:39:40.970Z,95990.59
2017-12-30T05:42:07.000Z,95982.17
2017-12-30T05:44:32.977Z,95982.67
2017-12-30T05:46:59.004Z,95982.55
2017-12-30T05:49:25.061Z,95985.64
2017-12-30T05:51:51.085Z,95975.71
2017-12-30T05:54:17.195Z,95979.25
2017-12-30T05:56:43.214Z,95977.65
2017-12-30T05:59:09.232Z,95981.41
2017-12-30T06:01:35.329Z,95981.11
2017-12-30T06:04:01.384Z,95986.30
2017-12-30T06:06:27.397Z,95997.94
2017-12-30T06:08:53.401Z,96000.92
2017-12-30T06:11:19.470Z,96006.92
2017-12-30T06:13:45.496Z,96008.50
2017-12-30T06:16:11.508Z,96012.93
2017-12-30T06:18:37.512Z,96012.91
2017-12-30T06:21:03.560Z,96008.39
2017-12-30T06:23:29.612Z,96011.09
2017-12-30T06:25:55.621Z,96011.49
2017-12-30T06:28:21.688Z,96007.45
2017-12-30T06:30:47.721Z,96024.73
2017-12-30T06:33:13.721Z,96030.30
2017-12-30T06:35:39.766Z,96017.20
2017-12-30T06:38:05.786Z,96028.38
2017-12-30T06:40:31.800Z,96013.43
2017-12-30T06:42:57.821Z,96025.64
2017-12-30T06:45:23.907Z,96030.91
2017-12-30T06:47:49.909Z,96032.42
2017-12-30T06:50:15.941Z,96034.84
2017-12-30T06:52:41.985Z,96028.36
2017-12-30T06:55:08.016Z,96030.50
2017-12-30T06:57:34.154Z,96021.25
2017-12-30T07:00:00.147Z,96021.67
2017-12-30T07:02:26.152Z,96027.53
2017-12-30T07:04:52.192Z,96025.37
2017-12-30T07:07:18.155Z,96022.47
2017-12-30T07:09:44.121Z,96018.27
2017-12-30T07:12:10.155Z,96019.56
2017-12-30T07:14:36.175Z,96016.41
2017-12-30T07:17:02.222Z,96025.14
2017-12-30T07:19:28.228Z,96028.05
2017-12-30T07:21:54.261Z,96020.02
2017-12-30T07:24:20.331Z,96027.47
2017-12-30T07:26:46.345Z,96023.39
2017-12-30T07:29:12.396Z,96022.09
2017-12-30T07:31:38.409Z,96015.07
2017-12-30T07:34:04.472Z,96008.78
2017-12-30T07:36:30.511Z,96006.08
2017-12-30T07:38:57.024Z,96007.81
2017-12-30T07:41:23.026Z,96011.53
2017-12-30T07:43:49.049Z,96018.62
2017-12-30T07:46:15.118Z,96022.42
2017-12-30T07:48:41.134Z,96020.56
2017-12-30T07:51:07.174Z,96015.98
2017-12-30T07:53:33.189Z,96008.52
2017-12-30T07:55:59.196Z,96016.82
2017-12-30T07:58:25.224Z,96017.70
2017-12-30T08:00:51.240Z,96027.82
2017-12-30T08:03:17.253Z,96035.25
2017-12-30T08:05:43.271Z,96025.25
2017-12-30T08:08:09.341Z,96019.30
2017-12-30T08:10:35.377Z,96013.30
2017-12-30T08:13:01.404Z,96007.84
2017-12-30T08:15:37.360Z,96012.48
2017-12-30T08:18:03.365Z,96015.41
2017-12-30T08:20:29.357Z,95997.15
2017-12-30T08:22:55.400Z,95995.34
2017-12-30T08:25:21.445Z,95996.34
2017-12-30T08:27:47.437Z,95993.64
2017-12-30T08:30:13.479Z,95990.11
2017-12-30T08:32:39.527Z,95969.89
2017-12-30T08:35:05.562Z,95954.23
2017-12-30T08:37:31.605Z,95959.60
2017-12-30T08:39:57.600Z,95970.07
2017-12-30T08:42:23.641Z,95967.02
2017-12-30T08:44:49.661Z,95963.42
2017-12-30T08:47:15.648Z,95957.74
2017-12-30T08:49:41.724Z,95960.91
2017-12-30T08:52:07.789Z,95958.94
2017-12-30T08:54:33.869Z,95955.09
2017-12-30T08:56:59.886Z,95956.77
2017-12-30T08:59:25.996Z,95952.64
2017-12-30T09:01:52.040Z,95949.67
2017-12-30T09:04:18.064Z,95944.90
2017-12-30T09:06:44.100Z,95940.08
2017-12-30T09:09:10.103Z,95954.14
2017-12-30T09:11:36.180Z,95941.34
2017-12-30T09:14:02.201Z,95929.11
2017-12-30T09:16:28.188Z,95925.16
2017-12-30T09:18:54.265Z,95931.40
2017-12-30T09:21:20.303Z,95927.33
2017-12-30T09:23:46.317Z,95934.05
2017-12-30T09:26:12.313Z,95924.96
2017-12-30T09:28:38.378Z,95924.19
2017-12-30T09:31:04.421Z,95911.73
2017-12-30T09:33:30.438Z,95909.94
2017-12-30T09:35:56.489Z,95905.45
2017-12-30T09:38:22.511Z,95907.62
2017-12-30T09:40:48.601Z,95905.83
2017-12-30T09:43:14.633Z,95900.57
2017-12-30T09:45:40.652Z,95901.42
2017-12-30T09:48:07.348Z,95875.09
2017-12-30T09:50:33.389Z,95890.03
2017-12-30T09:52:59.464Z,95889.06
2017-12-30T09:55:25.573Z,95894.34
2017-12-30T09:57:51.677Z,95899.02
2017-12-30T10:00:17.689Z,95881.67
2017-12-30T10:02:43.736Z,95866.61
2017-12-30T10:05:09.784Z,95855.49
2017-12-30T10:07:35.855Z,95856.31
2017-12-30T10:10:01.999Z,95848.69
2017-12-30T10:12:28.011Z,95836.46
2017-12-30T10:14:54.071Z,95825.62
2017-12-30T10:17:20.062Z,95815.55
2017-12-30T10:19:46.094Z,95819.17
2017-12-30T10:22:12.138Z,95825.47
2017-12-30T10:24:38.145Z,95829.92
2017-12-30T10:27:04.217Z,95842.88
2017-12-30T10:29:30.249Z,95840.63
2017-12-30T10:31:56.314Z,95847.70
2017-12-30T10:34:22.349Z,95831.95
2017-12-30T10:36:48.393Z,95838.59
2017-12-30T10:39:14.473Z,95834.55
2017-12-30T10:41:40.541Z,95829.19
2017-12-30T10:44:06.594Z,95820.64
2017-12-30T10:46:32.626Z,95810.64
2017-12-30T10:48:58.733Z,95808.94
2017-12-30T10:51:24.772Z,95796.46
2017-12-30T10:53:50.858Z,95796.98
2017-12-30T10:56:16.956Z,95785.72
2017-12-30T10:58:42.972Z,95776.45
2017-12-30T11:01:09.037Z,95755.31
2017-12-30T11:03:35.046Z,95746.30
2017-12-30T11:06:01.076Z,95736.17
2017-12-30T11:08:27.508Z,95733.97
2017-12-30T11:10:53.544Z,95723.50
2017-12-30T11:13:19.637Z,95732.49
2017-12-30T11:15:45.762Z,95733.42
2017-12-30T11:18:11.813Z,95728.60
2017-12-30T11:20:37.857Z,95722.70
2017-12-30T11:23:03.896Z,95713.02
2017-12-30T11:25:29.977Z,95717.98
2017-12-30T11:27:55.951Z,95713.27
2017-12-30T11:30:22.038Z,95714.53
2017-12-30T11:32:48.131Z,95698.76
2017-12-30T11:35:14.147Z,95691.72
2017-12-30T11:37:40.209Z,95686.12
2017-12-30T11:40:06.218Z,95680.98
2017-12-30T11:42:32.257Z,95683.66
2017-12-30T11:44:58.301Z,95679.23
2017-12-30T11:47:24.408Z,95674.52
2017-12-30T11:49:50.496Z,95669.34
2017-12-30T11:52:16.553Z,95665.19
2017-12-30T11:54:42.638Z,95666.00
2017-12-30T11:57:08.673Z,95669.15
2017-12-30T11:59:34.886Z,95663.23
2017-12-30T12:02:01.012Z,95656.31
2017-12-30T12:04:27.116Z,95656.85
2017-12-30T12:06:53.149Z,95658.53
2017-12-30T12:09:19.165Z,95662.73
2017-12-30T12:11:45.240Z,95659.55
2017-12-30T12:14:11.258Z,95652.88
2017-12-30T12:16:37.329Z,95652.25
2017-12-30T12:19:03.346Z,95645.93
2017-12-30T12:21:29.456Z,95635.94
2017-12-30T12:23:55.496Z,95629.11
2017-12-30T12:26:21.525Z,95626.41
2017-12-30T12:28:47.528Z,95626.75
2017-12-30T12:31:13.552Z,95626.80
2017-12-30T12:33:39.661Z,95617.89
2017-12-30T12:36:05.664Z,95614.23
2017-12-30T12:38:31.863Z,95615.06
2017-12-30T12:40:57.944Z,95612.30
2017-12-30T12:43:23.969Z,95611.98
2017-12-30T12:45:50.028Z,95623.03
2017-12-30T12:48:16.064Z,95600.88
2017-12-30T12:50:42.317Z,95613.23
2017-12-30T12:53:08.349Z,95608.40
2017-12-30T12:55:34.624Z,95600.72
2017-12-30T12:58:00.862Z,95594.45
2017-12-30T13:00:26.990Z,95591.21
2017-12-30T13:02:53.092Z,95582.84
2017-12-30T13:05:19.253Z,95589.59
2017-12-30T13:07:45.377Z,95591.12
2017-12-30T13:10:11.435Z,95588.70
2017-12-30T13:12:37.420Z,95605.13
2017-12-30T13:15:03.597Z,95601.03
2017-12-30T13:17:29.606Z,95604.23
2017-12-30T13:19:55.749Z,95606.39
2017-12-30T13:22:21.812Z,95609.81
2017-12-30T13:24:47.859Z,95589.78
2017-12-30T13:27:13.843Z,95601.25
2017-12-30T13:29:39.899Z,95609.47
2017-12-30T13:32:05.996Z,95606.23
2017-12-30T13:34:32.029Z,95589.34
2017-12-30T13:36:58.080Z,95594.31
2017-12-30T13:39:24.104Z,95600.15
2017-12-30T13:41:50.149Z,95610.58
2017-12-30T13:44:16.206Z,95628.69
2017-12-30T13:46:42.280Z,95630.03
2017-12-30T13:49:08.370Z,95619.66
2017-12-30T13:51:34.439Z,95605.80
2017-12-30T13:54:00.508Z,95594.13
2017-12-30T13:56:26.577Z,95599.20
2017-12-30T13:58:52.673Z,95611.27
2017-12-30T14:01:18.789Z,95606.81
2017-12-30T14:03:44.885Z,95607.68
2017-12-30T14:06:11.032Z,95608.78
2017-12-30T14:08:37.195Z,95605.84
2017-12-30T14:11:03.337Z,95614.77
2017-12-30T14:13:29.464Z,95605.95
2017-12-30T14:15:55.568Z,95601.09
2017-12-30T14:18:21.689Z,95612.66
2017-12-30T14:20:47.785Z,95611.06
2017-12-30T14:23:13.855Z,95601.78
2017-12-30T14:25:39.911Z,95623.37
2017-12-30T14:28:05.953Z,95612.25
2017-12-30T14:30:32.049Z,95629.30
2017-12-30T14:32:58.053Z,95643.03
2017-12-30T14:35:24.099Z,95633.22
2017-12-30T14:37:50.201Z,95632.84
2017-12-30T14:40:16.331Z,95640.42
2017-12-30T14:42:42.385Z,95635.30
2017-12-30T14:45:08.407Z,95634.08
2017-12-30T14:47:34.781Z,95638.86
2017-12-30T14:50:00.867Z,95633.05
2017-12-30T14:52:26.899Z,95636.43
2017-12-30T14:54:52.915Z,95629.88
2017-12-30T14:57:18.985Z,95636.11
2017-12-30T14:59:45.016Z,95629.79
2017-12-30T15:02:11.052Z,95629.79
2017-12-30T15:04:37.107Z,95648.89
2017-12-30T15:07:03.223Z,95657.79
2017-12-30T15:09:29.288Z,95656.08
2017-12-30T15:11:55.368Z,95660.52
2017-12-30T15:14:22.180Z,95651.03
2017-12-30T15:16:48.188Z,95643.84
2017-12-30T15:19:14.285Z,95652.75
2017-12-30T15:21:40.341Z,95648.68
2017-12-30T15:24:06.786Z,95668.30
2017-12-30T15:26:32.907Z,95661.41
2017-12-30T15:28:58.998Z,95669.83
2017-12-30T15:31:25.400Z,95692.20
2017-12-30T15:33:51.635Z,95685.94
2017-12-30T15:36:17.685Z,95683.14
2017-12-30T15:38:43.778Z,95686.44
2017-12-30T15:41:09.820Z,95702.47
2017-12-30T15:43:35.895Z,95697.45
2017-12-30T15:46:01.937Z,95695.09
2017-12-30T15:48:28.037Z,95685.58
2017-12-30T15:50:54.066Z,95669.45
2017-12-30T15:53:20.087Z,95669.16
2017-12-30T15:55:46.161Z,95685.58
2017-12-30T15:58:12.193Z,95691.75
2017-12-30T16:00:38.281Z,95694.05
2017-12-30T16:03:04.406Z,95691.97
2017-12-30T16:05:30.406Z,95690.06
2017-12-30T16:07:56.424Z,95693.73
2017-12-30T16:10:22.476Z,95701.80
2017-12-30T16:12:48.530Z,95714.50
2017-12-30T16:15:14.627Z,95723.88
2017-12-30T16:17:40.663Z,95736.34
2017-12-30T16:20:06.751Z,95731.88
2017-12-30T16:22:32.717Z,95728.59
2017-12-30T16:24:58.792Z,95734.78
2017-12-30T16:27:25.361Z,95723.86
2017-12-30T16:29:51.392Z,95732.39
2017-12-30T16:32:17.772Z,95724.35
2017-12-30T16:34:43.840Z,95708.20
2017-12-30T16:37:09.837Z,95712.40
2017-12-30T16:39:35.962Z,95716.33
2017-12-30T16:42:01.980Z,95720.95
2017-12-30T16:44:28.584Z,95726.89
2017-12-30T16:46:54.758Z,95721.23
2017-12-30T16:49:20.855Z,95728.55
2017-12-30T16:51:46.953Z,95731.31
2017-12-30T16:54:13.026Z,95738.82
2017-12-30T16:56:39.044Z,95739.36
2017-12-30T16:59:05.037Z,95752.97
2017-12-30T17:01:31.145Z,95763.43
2017-12-30T17:03:57.212Z,95754.70
2017-12-30T17:06:23.242Z,95735.06
2017-12-30T17:08:49.370Z,95731.95
2017-12-30T17:11:15.455Z,95746.33
2017-12-30T17:13:41.449Z,95754.48
2017-12-30T17:16:07.488Z,95756.75
2017-12-30T17:18:33.536Z,95772.44
2017-12-30T17:20:59.653Z,95771.39
2017-12-30T17:23:25.676Z,95772.55
2017-12-30T17:25:51.733Z,95783.92
2017-12-30T17:28:17.786Z,95777.75
2017-12-30T17:30:43.809Z,95791.16
2017-12-30T17:33:09.885Z,95793.67
2017-12-30T17:35:36.016Z,95800.16
2017-12-30T17:38:02.089Z,95799.26
2017-12-30T17:40:28.131Z,95801.20
2017-12-30T17:42:54.258Z,95788.67
2017-12-30T17:45:20.386Z,95795.26
2017-12-30T17:47:46.475Z,95798.49
2017-12-30T17:50:12.529Z,95801.59
2017-12-30T17:52:38.530Z,95814.03
2017-12-30T17:55:04.627Z,95818.02
2017-12-30T17:57:30.751Z,95819.39
2017-12-30T17:59:56.816Z,95831.28
2017-12-30T18:02:23.813Z,95824.48
2017-12-30T18:04:49.870Z,95820.50
2017-12-30T18:07:15.901Z,95829.02
2017-12-30T18:09:41.963Z,95834.17
2017-12-30T18:12:08.054Z,95836.81
2017-12-30T18:14:34.126Z,95845.30
2017-12-30T18:17:00.229Z,95838.14
2017-12-30T18:19:27.217Z,95841.81
2017-12-30T18:21:53.231Z,95859.24
2017-12-30T18:24:19.341Z,95859.56
2017-12-30T18:26:45.370Z,95859.58
2017-12-30T18:29:11.440Z,95869.97
2017-12-30T18:31:37.485Z,95867.04
2017-12-30T18:34:03.493Z,95873.23
2017-12-30T18:36:29.518Z,95890.98
2017-12-30T18:38:55.672Z,95879.75
2017-12-30T18:41:21.701Z,95879.52
2017-12-30T18:43:47.805Z,95871.95
2017-12-30T18:46:13.892Z,95879.47
2017-12-30T18:48:39.926Z,95871.61
2017-12-30T18:51:05.964Z,95864.76
2017-12-30T18:53:32.021Z,95864.75
2017-12-30T18:55:57.993Z,95871.91
2017-12-30T18:58:24.065Z,95860.31
2017-12-30T19:00:50.165Z,95863.23
2017-12-30T19:03:16.197Z,95849.72
2017-12-30T19:05:42.275Z,95839.39
2017-12-30T19:08:08.346Z,95853.05
2017-12-30T19:10:34.420Z,95857.67
2017-12-30T19:13:00.428Z,95861.20
2017-12-30T19:15:26.516Z,95867.36
2017-12-30T19:17:52.553Z,95860.65
2017-12-30T19:20:18.533Z,95863.30
2017-12-30T19:22:44.706Z,95871.84
2017-12-30T19:25:10.713Z,95880.20
2017-12-30T19:27:36.784Z,95874.52
2017-12-30T19:30:02.997Z,95858.39
2017-12-30T19:32:29.124Z,95880.65
2017-12-30T19:34:55.201Z,95883.27
2017-12-30T19:37:21.392Z,95878.51
2017-12-30T19:39:47.503Z,95870.64
2017-12-30T19:42:13.554Z,95872.83
2017-12-30T19:44:39.625Z,95894.16
2017-12-30T19:47:05.690Z,95907.14
2017-12-30T19:49:31.696Z,95902.31
2017-12-30T19:51:57.781Z,95897.02
2017-12-30T19:54:23.841Z,95892.55
2017-12-30T19:56:50.480Z,95903.03
2017-12-30T19:59:16.575Z,95907.87
2017-12-30T20:01:42.638Z,95915.80
2017-12-30T20:04:08.685Z,95904.66
2017-12-30T20:06:34.728Z,95890.48
2017-12-30T20:09:00.796Z,95888.66
2017-12-30T20:11:26.893Z,95884.13
2017-12-30T20:13:52.932Z,95878.77
2017-12-30T20:16:18.962Z,95878.92
2017-12-30T20:18:45.074Z,95880.69
2017-12-30T20:21:11.116Z,95886.54
2017-12-30T20:23:37.740Z,95888.95
2017-12-30T20:26:03.792Z,95881.76
2017-12-30T20:28:29.836Z,95868.75
2017-12-30T20:30:55.858Z,95878.88
2017-12-30T20:33:22.540Z,95877.68
2017-12-30T20:35:48.632Z,95873.73
2017-12-30T20:38:14.716Z,95879.11
2017-12-30T20:40:40.786Z,95884.39
2017-12-30T20:43:06.854Z,95887.00
2017-12-30T20:45:32.903Z,95887.54
2017-12-30T20:47:58.948Z,95887.77
2017-12-30T20:50:24.975Z,95885.70
2017-12-30T20:52:50.989Z,95896.93
2017-12-30T20:55:17.041Z,95892.56
2017-12-30T20:57:43.114Z,95898.15
2017-12-30T21:00:09.105Z,95897.10
2017-12-30T21:02:35.220Z,95893.98
2017-12-30T21:05:01.272Z,95922.87
2017-12-30T21:07:27.294Z,95918.63
2017-12-30T21:09:53.331Z,95896.13
2017-12-30T21:12:19.374Z,95856.99
2017-12-30T21:14:45.585Z,95862.06
2017-12-30T21:17:11.636Z,95868.55
2017-12-30T21:19:37.680Z,95862.22
2017-12-30T21:22:03.757Z,95857.48
2017-12-30T21:24:29.854Z,95861.94
2017-12-30T21:26:55.946Z,95866.36
2017-12-30T21:29:22.040Z,95877.80
2017-12-30T21:31:48.151Z,95881.49
2017-12-30T21:34:15.306Z,95882.02
2017-12-30T21:36:41.418Z,95878.78
2017-12-30T21:39:07.645Z,95880.31
2017-12-30T21:41:33.640Z,95877.01
2017-12-30T21:43:59.698Z,95880.22
2017-12-30T21:46:26.086Z,95891.50
2017-12-30T21:48:52.144Z,95904.45
2017-12-30T21:51:18.192Z,95900.92
2017-12-30T21:53:44.242Z,95909.15
2017-12-30T21:56:10.305Z,95899.93
2017-12-30T21:58:36.407Z,95895.15
2017-12-30T22:01:02.534Z,95908.52
2017-12-30T22:03:28.792Z,95903.27
2017-12-30T22:05:54.881Z,95912.30
2017-12-30T22:08:20.934Z,95910.93
2017-12-30T22:10:47.204Z,95905.41
2017-12-30T22:13:13.281Z,95896.52
2017-12-30T22:15:39.355Z,95899.38
2017-12-30T22:18:05.396Z,95904.84
2017-12-30T22:20:31.552Z,95897.53
2017-12-30T22:22:57.742Z,95894.21
2017-12-30T22:25:23.704Z,95904.36
2017-12-30T22:27:49.751Z,95905.94
2017-12-30T22:30:15.772Z,95913.10
2017-12-30T22:32:41.822Z,95918.25
2017-12-30T22:35:07.860Z,95928.26
2017-12-30T22:37:33.994Z,95932.09
2017-12-30T22:40:00.083Z,95929.82
2017-12-30T22:42:26.113Z,95939.06
2017-12-30T22:44:52.165Z,95933.17
2017-12-30T22:47:18.275Z,95939.75
2017-12-30T22:49:44.310Z,95947.16
2017-12-30T22:52:10.536Z,95955.32
2017-12-30T22:54:36.616Z,95950.00
2017-12-30T22:57:02.743Z,95937.05
2017-12-30T22:59:28.804Z,95929.20
2017-12-30T23:01:54.889Z,95928.88
2017-12-30T23:04:20.952Z,95928.97
2017-12-30T23:06:47.366Z,95927.42
2017-12-30T23:09:13.416Z,95930.72
2017-12-30T23:11:39.502Z,95941.24
2017-12-30T23:14:05.472Z,95945.70
2017-12-30T23:16:31.536Z,95957.55
2017-12-30T23:18:57.600Z,95957.41
2017-12-30T23:21:23.634Z,95965.84
2017-12-30T23:23:49.697Z,95964.64
2017-12-30T23:26:15.758Z,95956.16
2017-12-30T23:28:41.825Z,95973.59
2017-12-30T23:31:07.879Z,95972.53
2017-12-30T23:33:33.979Z,95976.87
2017-12-30T23:36:00.044Z,95970.38
2017-12-30T23:38:26.081Z,95971.83
2017-12-30T23:40:52.144Z,95971.33
2017-12-30T23:43:18.176Z,95969.22
2017-12-30T23:45:44.208Z,95961.31
2017-12-30T23:48:10.235Z,95974.78
2017-12-30T23:50:36.261Z,95986.23
2017-12-30T23:53:02.280Z,95989.23
2017-12-30T23:55:28.310Z,95976.06
2017-12-30T23:57:54.337Z,95978.87
